createdAt,value
2022-07-29T00:01:19.152Z,98969.00
2022-07-29T00:04:11.605Z,98958.56
2022-07-29T00:07:06.081Z,98957.06
2022-07-29T00:10:00.285Z,98962.09
2022-07-29T00:12:54.927Z,98954.59
2022-07-29T00:15:50.090Z,98952.13
2022-07-29T00:18:44.820Z,98951.84
2022-07-29T00:21:45.464Z,98939.88
2022-07-29T00:24:40.429Z,98950.19
2022-07-29T00:27:34.749Z,98942.31
2022-07-29T00:30:29.976Z,98942.63
2022-07-29T00:33:29.399Z,98945.66
2022-07-29T00:36:23.981Z,98945.47
2022-07-29T00:39:29.313Z,98949.44
2022-07-29T00:42:28.966Z,98951.66
2022-07-29T00:45:24.130Z,98943.66
2022-07-29T00:51:39.468Z,98937.72
2022-07-29T00:54:34.047Z,98934.47
2022-07-29T00:57:47.590Z,98937.13
2022-07-29T01:00:45.476Z,98932.63
2022-07-29T01:03:39.896Z,98924.88
2022-07-29T01:06:34.767Z,98929.34
2022-07-29T01:09:42.742Z,98933.34
2022-07-29T01:12:43.590Z,98930.44
2022-07-29T01:15:49.539Z,98943.97
2022-07-29T01:19:03.885Z,98952.19
2022-07-29T01:26:04.691Z,98945.31
2022-07-29T01:29:29.809Z,98934.66
2022-07-29T01:32:50.087Z,98944.22
2022-07-29T01:35:47.004Z,98926.00
2022-07-29T01:38:42.243Z,98923.44
2022-07-29T01:41:40.466Z,98932.94
2022-07-29T01:44:37.911Z,98945.19
2022-07-29T01:47:33.217Z,98937.03
2022-07-29T01:50:33.520Z,98933.59
2022-07-29T01:53:34.860Z,98938.81
2022-07-29T01:56:33.933Z,98929.63
2022-07-29T01:59:29.873Z,98936.59
2022-07-29T02:02:27.982Z,98928.09
2022-07-29T02:05:24.458Z,98924.63
2022-07-29T02:08:22.089Z,98928.38
2022-07-29T02:11:17.438Z,98928.66
2022-07-29T02:14:09.939Z,98929.63
2022-07-29T02:17:07.630Z,98927.13
2022-07-29T02:20:05.860Z,98940.91
2022-07-29T02:23:01.456Z,98924.13
2022-07-29T02:25:56.335Z,98928.28
2022-07-29T02:28:52.887Z,98925.09
2022-07-29T02:31:48.853Z,98906.91
2022-07-29T02:34:46.267Z,98935.94
2022-07-29T02:37:41.909Z,98924.66
2022-07-29T02:40:36.154Z,98932.25
2022-07-29T02:43:31.408Z,98927.03
2022-07-29T02:46:28.954Z,98928.91
2022-07-29T02:49:43.125Z,98936.31
2022-07-29T02:52:44.884Z,98935.56
2022-07-29T02:55:45.960Z,98920.13
2022-07-29T02:58:47.374Z,98926.25
2022-07-29T03:01:45.879Z,98923.88
2022-07-29T03:04:39.186Z,98911.03
2022-07-29T03:07:34.595Z,98933.00
2022-07-29T03:10:30.335Z,98926.25
2022-07-29T03:13:28.722Z,98925.38
2022-07-29T03:16:26.439Z,98917.47
2022-07-29T03:19:20.879Z,98925.03
2022-07-29T03:35:42.036Z,98921.75
2022-07-29T03:38:37.724Z,98920.00
2022-07-29T03:41:38.895Z,98914.06
2022-07-29T03:44:34.434Z,98915.06
2022-07-29T03:47:43.493Z,98917.06
2022-07-29T03:50:46.070Z,98907.75
2022-07-29T03:53:41.459Z,98915.78
2022-07-29T03:56:34.388Z,98904.78
2022-07-29T03:59:36.561Z,98890.75
2022-07-29T04:02:31.259Z,98905.63
2022-07-29T04:05:25.428Z,98897.31
2022-07-29T04:08:19.764Z,98897.94
2022-07-29T04:12:03.899Z,98905.44
2022-07-29T04:15:16.736Z,98896.25
2022-07-29T04:18:11.153Z,98908.34
2022-07-29T04:21:05.518Z,98899.44
2022-07-29T04:24:14.790Z,98903.72
2022-07-29T04:27:29.124Z,98925.44
2022-07-29T04:30:23.373Z,98913.22
2022-07-29T04:33:17.979Z,98916.81
2022-07-29T04:36:28.593Z,98902.84
2022-07-29T04:39:23.767Z,98902.72
2022-07-29T04:42:27.517Z,98906.63
2022-07-29T04:45:35.348Z,98891.63
2022-07-29T04:48:33.858Z,98899.16
2022-07-29T04:51:34.935Z,98884.28
2022-07-29T04:54:31.223Z,98914.34
2022-07-29T04:57:30.625Z,98918.03
2022-07-29T05:00:33.250Z,98890.25
2022-07-29T05:03:31.738Z,98915.75
2022-07-29T05:06:29.673Z,98929.19
2022-07-29T05:09:33.522Z,98934.19
2022-07-29T05:12:33.341Z,98934.34
2022-07-29T05:15:44.305Z,98936.94
2022-07-29T05:18:43.487Z,98943.59
2022-07-29T05:21:41.036Z,98933.84
2022-07-29T05:24:45.708Z,98963.66
2022-07-29T05:27:45.369Z,98959.38
2022-07-29T05:30:51.078Z,98965.63
2022-07-29T05:33:43.751Z,98961.25
2022-07-29T05:36:40.206Z,98974.97
2022-07-29T05:39:47.197Z,98957.50
2022-07-29T05:42:43.593Z,98949.44
2022-07-29T05:45:49.262Z,98961.44
2022-07-29T05:48:44.528Z,98959.72
2022-07-29T05:51:42.902Z,98972.34
2022-07-29T05:58:19.684Z,99001.91
2022-07-29T06:01:15.673Z,99015.69
2022-07-29T06:08:09.546Z,98996.34
2022-07-29T06:18:59.186Z,98979.78
2022-07-29T06:25:13.996Z,98978.50
2022-07-29T06:28:09.089Z,98978.13
2022-07-29T06:44:37.647Z,98989.81
2022-07-29T06:47:38.061Z,98990.22
2022-07-29T06:50:38.973Z,98994.50
2022-07-29T06:56:42.650Z,98989.38
2022-07-29T06:59:38.370Z,98990.84
2022-07-29T07:02:39.224Z,98985.88
2022-07-29T07:05:35.591Z,99003.59
2022-07-29T07:08:38.564Z,99007.66
2022-07-29T07:11:46.237Z,99026.59
2022-07-29T07:15:07.685Z,99030.84
2022-07-29T07:18:08.022Z,99017.28
2022-07-29T07:21:10.674Z,99005.53
2022-07-29T07:24:29.481Z,98998.75
2022-07-29T07:27:32.674Z,99001.13
2022-07-29T07:30:48.542Z,99010.22
2022-07-29T07:34:29.523Z,99007.19
2022-07-29T07:37:44.354Z,99030.81
2022-07-29T07:40:40.275Z,99026.53
2022-07-29T07:43:39.336Z,99040.69
2022-07-29T07:53:21.274Z,99062.94
2022-07-29T07:56:42.284Z,99059.56
2022-07-29T07:59:48.306Z,99047.03
2022-07-29T08:02:44.212Z,99046.44
2022-07-29T08:05:59.844Z,99044.84
2022-07-29T08:12:47.411Z,99013.47
2022-07-29T08:15:59.160Z,99024.06
2022-07-29T08:19:01.599Z,99031.56
2022-07-29T08:22:02.337Z,99028.56
2022-07-29T08:25:10.815Z,99029.34
2022-07-29T08:28:11.592Z,99035.19
2022-07-29T08:31:06.395Z,99032.97
2022-07-29T08:42:21.338Z,99052.97
2022-07-29T08:45:27.800Z,99043.38
2022-07-29T08:48:24.163Z,99031.50
2022-07-29T08:54:37.626Z,99019.31
2022-07-29T08:57:37.098Z,99019.19
2022-07-29T09:00:41.516Z,99004.47
2022-07-29T09:03:56.048Z,99005.59
2022-07-29T09:10:52.503Z,98951.09
2022-07-29T09:14:02.647Z,98963.19
2022-07-29T09:17:43.752Z,98957.19
2022-07-29T09:21:17.907Z,98929.13
2022-07-29T09:24:28.406Z,98938.25
2022-07-29T09:31:18.918Z,98958.31
2022-07-29T09:34:25.752Z,98975.41
2022-07-29T09:37:47.824Z,98984.84
2022-07-29T09:44:37.137Z,99014.13
2022-07-29T09:48:13.770Z,99000.91
2022-07-29T09:51:15.058Z,99017.53
2022-07-29T09:54:40.484Z,99027.50
2022-07-29T09:57:51.302Z,99029.53
2022-07-29T10:00:57.296Z,99005.50
2022-07-29T10:04:10.385Z,99031.50
2022-07-29T10:07:20.833Z,99006.03
2022-07-29T10:10:57.079Z,99026.00
2022-07-29T10:13:58.387Z,99005.06
2022-07-29T10:16:53.871Z,99011.38
2022-07-29T10:20:00.009Z,99037.25
2022-07-29T10:22:55.249Z,99022.69
2022-07-29T10:25:55.765Z,99034.13
2022-07-29T10:29:00.992Z,99045.59
2022-07-29T10:32:43.879Z,99048.25
2022-07-29T10:36:19.911Z,99080.66
2022-07-29T10:39:25.610Z,99080.97
2022-07-29T10:42:38.985Z,99076.59
2022-07-29T10:45:42.909Z,99096.31
2022-07-29T10:48:43.602Z,99084.31
2022-07-29T10:52:10.860Z,99087.25
2022-07-29T10:58:52.855Z,99067.84
2022-07-29T11:02:27.694Z,99098.69
2022-07-29T11:05:32.327Z,99071.28
2022-07-29T11:08:44.551Z,99102.03
2022-07-29T11:18:32.176Z,99093.41
2022-07-29T11:21:51.710Z,99076.03
2022-07-29T11:24:57.910Z,99049.03
2022-07-29T11:27:55.493Z,99076.81
2022-07-29T11:31:07.103Z,99052.53
2022-07-29T11:34:28.087Z,99061.38
2022-07-29T11:48:48.070Z,99095.09
2022-07-29T11:51:32.774Z,99087.88
2022-07-29T11:58:56.070Z,99080.66
2022-07-29T12:05:58.296Z,99056.00
2022-07-29T12:09:40.435Z,99068.97
2022-07-29T12:15:52.517Z,99076.00
2022-07-29T12:19:02.053Z,99048.53
2022-07-29T12:22:12.763Z,99067.53
2022-07-29T12:25:33.779Z,99053.41
2022-07-29T12:28:40.208Z,99045.66
2022-07-29T12:31:49.336Z,99062.63
2022-07-29T12:42:29.116Z,99038.50
2022-07-29T12:45:27.398Z,99047.38
2022-07-29T12:48:55.965Z,99065.50
2022-07-29T12:51:58.616Z,99062.22
2022-07-29T12:55:03.072Z,99065.22
2022-07-29T12:58:08.274Z,99035.22
2022-07-29T13:01:17.431Z,99047.25
2022-07-29T13:04:30.235Z,99055.59
2022-07-29T13:07:55.756Z,99046.16
2022-07-29T13:10:54.199Z,99063.41
2022-07-29T13:14:10.101Z,99065.63
2022-07-29T13:17:25.068Z,99050.09
2022-07-29T13:20:23.788Z,99054.88
2022-07-29T13:23:18.559Z,99051.00
2022-07-29T13:26:24.309Z,99037.59
2022-07-29T13:29:18.627Z,99072.75
2022-07-29T13:32:16.943Z,99064.78
2022-07-29T13:35:13.224Z,99067.31
2022-07-29T13:38:08.752Z,99068.59
2022-07-29T13:41:03.718Z,99057.13
2022-07-29T13:44:00.578Z,99064.53
2022-07-29T13:46:55.223Z,99085.44
2022-07-29T13:49:49.666Z,99067.25
2022-07-29T13:52:48.532Z,99058.59
2022-07-29T13:55:43.365Z,99078.88
2022-07-29T13:58:38.735Z,99076.63
2022-07-29T14:01:33.769Z,99078.84
2022-07-29T14:04:32.134Z,99063.97
2022-07-29T14:07:28.192Z,99095.13
2022-07-29T14:10:25.897Z,99091.25
2022-07-29T14:13:25.218Z,99100.19
2022-07-29T14:16:23.410Z,99104.78
2022-07-29T14:19:17.833Z,99106.88
2022-07-29T14:22:21.482Z,99095.19
2022-07-29T14:25:21.225Z,99080.44
2022-07-29T14:28:18.658Z,99108.47
2022-07-29T14:31:13.526Z,99095.66
2022-07-29T14:34:11.618Z,99092.47
2022-07-29T14:37:06.948Z,99090.91
2022-07-29T14:40:03.057Z,99107.19
2022-07-29T14:46:21.067Z,99100.84
2022-07-29T14:49:20.903Z,99100.75
2022-07-29T14:52:15.930Z,99106.09
2022-07-29T14:55:19.381Z,99092.97
2022-07-29T14:58:16.760Z,99099.47
2022-07-29T15:01:09.167Z,99094.16
2022-07-29T15:04:09.969Z,99083.47
2022-07-29T15:07:10.951Z,99081.75
2022-07-29T15:10:05.179Z,99083.56
2022-07-29T15:13:02.913Z,99092.66
2022-07-29T15:16:00.668Z,99087.88
2022-07-29T15:18:58.137Z,99069.13
2022-07-29T15:21:59.629Z,99080.69
2022-07-29T15:24:54.413Z,99073.69
2022-07-29T15:31:29.956Z,99051.53
2022-07-29T15:34:41.424Z,99063.03
2022-07-29T15:44:02.654Z,99080.16
2022-07-29T15:47:10.157Z,99098.34
2022-07-29T15:50:04.856Z,99085.97
2022-07-29T15:53:28.821Z,99079.78
2022-07-29T15:56:29.553Z,99069.47
2022-07-29T15:59:23.973Z,99089.09
2022-07-29T16:02:21.430Z,99080.00
2022-07-29T16:05:32.670Z,99073.06
2022-07-29T16:08:33.685Z,99088.16
2022-07-29T16:11:40.543Z,99077.91
2022-07-29T16:14:36.865Z,99094.78
2022-07-29T16:17:32.388Z,99093.19
2022-07-29T16:20:27.747Z,99094.00
2022-07-29T16:23:31.021Z,99109.63
2022-07-29T16:26:25.468Z,99106.81
2022-07-29T16:29:19.956Z,99089.81
2022-07-29T16:35:48.724Z,99113.06
2022-07-29T16:38:47.049Z,99102.50
2022-07-29T16:41:42.935Z,99097.41
2022-07-29T16:44:45.266Z,99093.19
2022-07-29T16:48:00.241Z,99088.50
2022-07-29T16:51:21.220Z,99085.81
2022-07-29T16:54:27.357Z,99091.56
2022-07-29T16:57:22.928Z,99102.59
2022-07-29T17:00:30.391Z,99093.75
2022-07-29T17:03:30.217Z,99102.91
2022-07-29T17:06:29.366Z,99098.72
2022-07-29T17:13:06.051Z,99128.94
2022-07-29T17:16:16.953Z,99104.13
2022-07-29T17:19:16.865Z,99100.41
2022-07-29T17:22:21.363Z,99105.06
2022-07-29T17:25:21.394Z,99113.34
2022-07-29T17:28:16.178Z,99098.75
2022-07-29T17:31:12.843Z,99099.72
2022-07-29T17:34:09.575Z,99109.16
2022-07-29T17:37:10.217Z,99107.47
2022-07-29T17:40:05.670Z,99102.44
2022-07-29T17:43:05.443Z,99123.50
2022-07-29T17:46:06.213Z,99126.78
2022-07-29T17:49:07.577Z,99123.78
2022-07-29T17:52:18.649Z,99135.22
2022-07-29T17:55:17.070Z,99095.47
2022-07-29T17:58:45.795Z,99122.56
2022-07-29T18:12:16.228Z,99132.75
2022-07-29T18:15:24.144Z,99122.81
2022-07-29T18:18:26.139Z,99137.22
2022-07-29T18:21:42.582Z,99134.78
2022-07-29T18:24:46.258Z,99130.78
2022-07-29T18:27:58.499Z,99123.03
2022-07-29T18:30:55.326Z,99120.53
2022-07-29T18:38:00.783Z,99149.94
2022-07-29T18:40:55.009Z,99144.19
2022-07-29T18:44:21.939Z,99129.50
2022-07-29T18:47:20.024Z,99112.53
2022-07-29T18:54:13.741Z,99126.25
2022-07-29T18:57:53.622Z,99128.44
